Time;durP1;ratioP1;P1;durP2;ratioP2;P2;SDS_P1;SDS_P2;PMS_P1;PMS_P2;Temp;Humidity;BMP_temperature;BMP_pressure;BME280_temperature;BME280_humidity;BME280_pressure;Samples;Min_cycle;Max_cycle;Signal;HPM_P1;HPM_P2
2021/10/10 00:01:14;;;;;;;25.83;12.10;;;;;;;-141.50;100.00;63355.56;4942363;28;20070;-82
2021/10/10 00:03:41;;;;;;;25.50;11.95;;;;;;;-141.50;100.00;63355.56;4958163;28;20137;-85
2021/10/10 00:06:08;;;;;;;27.80;12.48;;;;;;;-141.50;100.00;63355.56;4975403;28;20039;-83
2021/10/10 00:08:35;;;;;;;24.10;11.82;;;;;;;-141.50;100.00;63355.56;4942574;28;20081;-82
2021/10/10 00:11:02;;;;;;;27.75;12.73;;;;;;;-141.50;100.00;63355.56;4959141;28;20042;-83
2021/10/10 00:13:29;;;;;;;24.83;12.38;;;;;;;-141.50;100.00;63355.56;4957766;28;20415;-82
2021/10/10 00:15:55;;;;;;;29.05;11.52;;;;;;;-141.50;100.00;63355.56;4974440;28;20498;-83
2021/10/10 00:18:22;;;;;;;24.08;11.40;;;;;;;-141.50;100.00;63355.56;4941820;28;20487;-84
2021/10/10 00:20:49;;;;;;;23.92;10.98;;;;;;;-141.50;100.00;63355.56;4941678;28;20042;-83
2021/10/10 00:23:16;;;;;;;21.20;10.93;;;;;;;-141.50;100.00;63355.56;4957876;28;20054;-81
2021/10/10 00:25:42;;;;;;;22.83;11.88;;;;;;;-141.50;100.00;63355.56;4958723;28;20130;-82
2021/10/10 00:28:09;;;;;;;23.25;11.65;;;;;;;-141.50;100.00;63355.56;4944574;28;20051;-82
2021/10/10 00:30:36;;;;;;;25.77;11.48;;;;;;;-141.50;100.00;63355.56;4946041;28;20047;-82
2021/10/10 00:33:03;;;;;;;22.80;11.85;;;;;;;-141.50;100.00;63355.56;4946163;28;20554;-83
2021/10/10 00:35:30;;;;;;;27.45;11.43;;;;;;;-141.50;100.00;63355.56;4946346;28;20046;-82
2021/10/10 00:37:57;;;;;;;19.98;11.07;;;;;;;-141.50;100.00;63355.56;4945967;28;20050;-82
2021/10/10 00:40:23;;;;;;;27.92;11.18;;;;;;;-141.50;100.00;63355.56;4951126;28;20043;-82
2021/10/10 00:42:50;;;;;;;23.90;11.68;;;;;;;-141.50;100.00;63355.56;4947690;28;20051;-83
2021/10/10 00:45:18;;;;;;;26.02;11.25;;;;;;;-141.50;100.00;63355.56;4947411;28;20047;-82
2021/10/10 00:47:44;;;;;;;28.73;11.57;;;;;;;-141.50;100.00;63355.56;4947840;28;20141;-83
2021/10/10 00:50:11;;;;;;;23.88;10.35;;;;;;;-141.50;100.00;63355.56;4947149;28;20050;-83
2021/10/10 00:52:44;;;;;;;23.13;11.02;;;;;;;-141.50;100.00;63355.56;4951169;28;20074;-83
2021/10/10 00:55:11;;;;;;;25.27;11.70;;;;;;;-141.50;100.00;63355.56;4965483;28;20043;-83
2021/10/10 00:57:43;;;;;;;27.30;11.40;;;;;;;-141.50;100.00;63355.56;4947710;28;20046;-83
2021/10/10 01:00:12;;;;;;;27.40;10.13;;;;;;;-141.50;100.00;63355.56;4950105;28;20047;-82
2021/10/10 01:02:41;;;;;;;21.60;10.52;;;;;;;-141.50;100.00;63355.56;4964537;28;20039;-82
2021/10/10 01:05:10;;;;;;;21.85;10.30;;;;;;;-141.50;100.00;63355.56;4966717;28;20394;-82
2021/10/10 01:07:37;;;;;;;23.65;10.50;;;;;;;-141.50;100.00;63355.56;4963695;28;20058;-83
2021/10/10 01:10:07;;;;;;;24.02;10.50;;;;;;;-141.50;100.00;63355.56;4953194;28;20046;-83
2021/10/10 01:12:34;;;;;;;22.83;10.95;;;;;;;-141.50;100.00;63355.56;4966073;28;20034;-82
2021/10/10 01:15:02;;;;;;;21.35;10.75;;;;;;;-141.50;100.00;63355.56;4963827;28;20043;-81
2021/10/10 01:17:29;;;;;;;19.80;10.10;;;;;;;-141.50;100.00;63355.56;4984886;28;20050;-85
2021/10/10 01:19:56;;;;;;;23.45;10.63;;;;;;;-141.50;100.00;63355.56;4984296;28;20550;-84
2021/10/10 01:22:22;;;;;;;23.58;10.27;;;;;;;-141.50;100.00;63355.56;4980501;28;20042;-83
2021/10/10 01:24:49;;;;;;;22.45;10.70;;;;;;;-141.50;100.00;63355.56;4947114;28;20042;-82
2021/10/10 01:27:15;;;;;;;21.40;10.75;;;;;;;-141.50;100.00;63355.56;4947107;28;20411;-82
2021/10/10 01:29:42;;;;;;;25.33;10.80;;;;;;;-141.50;100.00;63355.56;4946390;28;20046;-83
2021/10/10 01:32:09;;;;;;;25.15;11.23;;;;;;;-141.50;100.00;63355.56;4946486;28;20130;-84
2021/10/10 01:34:36;;;;;;;25.85;10.90;;;;;;;-141.50;100.00;63355.56;4962008;28;20055;-83
2021/10/10 01:37:02;;;;;;;23.15;10.18;;;;;;;-141.50;100.00;63355.56;4961545;28;20050;-82
2021/10/10 01:39:29;;;;;;;27.52;11.13;;;;;;;-141.50;100.00;63355.56;4978461;28;20042;-85
2021/10/10 01:41:58;;;;;;;22.20;10.48;;;;;;;-141.50;100.00;63355.56;4960433;28;20046;-83
2021/10/10 01:44:25;;;;;;;28.65;10.65;;;;;;;-141.50;100.00;63355.56;4961229;28;20488;-83
2021/10/10 01:46:52;;;;;;;24.15;11.18;;;;;;;-141.50;100.00;63355.56;4961843;28;20050;-85
2021/10/10 01:49:18;;;;;;;24.67;10.95;;;;;;;-141.50;100.00;63355.56;4961307;28;20653;-83
2021/10/10 01:51:45;;;;;;;29.20;11.77;;;;;;;-141.50;100.00;63355.56;4961015;28;20566;-85
2021/10/10 01:54:12;;;;;;;23.75;11.38;;;;;;;-141.50;100.00;63355.56;4961485;28;20051;-83
2021/10/10 01:56:39;;;;;;;26.70;11.05;;;;;;;-141.50;100.00;63355.56;4944921;28;20051;-87
2021/10/10 01:59:06;;;;;;;20.38;10.77;;;;;;;-141.50;100.00;63355.56;4961456;28;20043;-85
2021/10/10 02:01:32;;;;;;;22.30;11.00;;;;;;;-141.50;100.00;63355.56;4977552;28;20042;-84
2021/10/10 02:03:59;;;;;;;26.15;11.05;;;;;;;-141.50;100.00;63355.56;4945370;28;20146;-82
2021/10/10 02:06:27;;;;;;;26.00;11.88;;;;;;;-141.50;100.00;63355.56;4945674;28;20051;-83
2021/10/10 02:08:54;;;;;;;24.75;11.55;;;;;;;-141.50;100.00;63355.56;4945702;28;20042;-81
2021/10/10 02:11:21;;;;;;;21.45;10.68;;;;;;;-141.50;100.00;63355.56;4960810;28;20049;-83
2021/10/10 02:13:48;;;;;;;22.10;10.82;;;;;;;-141.50;100.00;63355.56;4944486;28;20042;-82
2021/10/10 02:16:14;;;;;;;23.42;11.40;;;;;;;-141.50;100.00;63355.56;4977951;28;20088;-81
2021/10/10 02:18:41;;;;;;;27.83;11.98;;;;;;;-141.50;100.00;63355.56;4945154;28;20038;-83
2021/10/10 02:21:08;;;;;;;29.25;12.13;;;;;;;-141.50;100.00;63355.56;4961110;28;20046;-84
2021/10/10 02:23:38;;;;;;;31.92;11.93;;;;;;;-141.50;100.00;63355.56;4945602;28;20130;-83
2021/10/10 02:26:04;;;;;;;27.05;11.30;;;;;;;-141.50;100.00;63355.56;4944522;28;20047;-83
2021/10/10 02:28:31;;;;;;;26.23;11.88;;;;;;;-141.50;100.00;63355.56;4945049;28;20074;-83
2021/10/10 02:30:57;;;;;;;28.85;12.15;;;;;;;-141.50;100.00;63355.56;4944843;28;20061;-83
2021/10/10 02:33:24;;;;;;;25.33;11.98;;;;;;;-141.50;100.00;63355.56;4944747;28;20077;-83
2021/10/10 02:35:51;;;;;;;25.77;11.98;;;;;;;-141.50;100.00;63355.56;4944870;28;20054;-83
2021/10/10 02:38:18;;;;;;;34.38;11.95;;;;;;;-141.50;100.00;63355.56;4944564;28;20052;-83
2021/10/10 02:40:45;;;;;;;26.40;11.65;;;;;;;-141.50;100.00;63355.56;4945353;28;20051;-83
2021/10/10 02:43:12;;;;;;;27.00;11.45;;;;;;;-141.50;100.00;63355.56;4961306;28;20050;-84
2021/10/10 02:45:38;;;;;;;24.48;11.27;;;;;;;-141.50;100.00;63355.56;4976874;28;20039;-84
2021/10/10 02:48:06;;;;;;;23.15;11.65;;;;;;;-141.50;100.00;63355.56;4959562;28;20042;-82
2021/10/10 02:50:32;;;;;;;28.88;11.73;;;;;;;-141.50;100.00;63355.56;4955315;28;20039;-82
2021/10/10 02:52:59;;;;;;;23.02;11.07;;;;;;;-141.50;100.00;63355.56;4959443;28;20042;-84
2021/10/10 02:55:25;;;;;;;27.95;11.38;;;;;;;-141.50;100.00;63355.56;4959628;28;20043;-83
2021/10/10 02:57:52;;;;;;;23.05;10.98;;;;;;;-141.50;100.00;63355.56;4976491;28;20066;-83
2021/10/10 03:00:19;;;;;;;25.58;11.35;;;;;;;-141.50;100.00;63355.56;4960747;28;20195;-82
2021/10/10 03:02:46;;;;;;;26.80;11.25;;;;;;;-141.50;100.00;63355.56;4964241;28;20053;-83
2021/10/10 03:05:13;;;;;;;31.25;12.13;;;;;;;-141.50;100.00;63355.56;4960143;28;20043;-84
2021/10/10 03:07:39;;;;;;;27.15;11.68;;;;;;;-141.50;100.00;63355.56;4944688;28;20054;-84
2021/10/10 03:10:06;;;;;;;23.85;10.82;;;;;;;-141.50;100.00;63355.56;4943670;28;20051;-83
2021/10/10 03:12:33;;;;;;;25.45;11.20;;;;;;;-141.50;100.00;63355.56;4942610;28;20046;-83
2021/10/10 03:15:01;;;;;;;23.38;10.80;;;;;;;-141.50;100.00;63355.56;4942985;28;20141;-83
2021/10/10 03:17:28;;;;;;;26.98;12.07;;;;;;;-141.50;100.00;63355.56;4942939;28;20119;-84
2021/10/10 03:19:55;;;;;;;24.55;11.90;;;;;;;-141.50;100.00;63355.56;4960807;28;20050;-83
2021/10/10 03:22:22;;;;;;;25.58;11.85;;;;;;;-141.50;100.00;63355.56;4944375;28;20412;-84
2021/10/10 03:24:48;;;;;;;30.73;13.23;;;;;;;-141.50;100.00;63355.56;4943069;28;20833;-83
2021/10/10 03:27:15;;;;;;;27.70;12.85;;;;;;;-141.50;100.00;63355.56;4941446;28;20051;-82
2021/10/10 03:29:42;;;;;;;32.25;12.40;;;;;;;-141.50;100.00;63355.56;4957963;28;20043;-81
2021/10/10 03:32:09;;;;;;;24.75;11.88;;;;;;;-141.50;100.00;63355.56;4942409;28;20042;-83
2021/10/10 03:34:35;;;;;;;26.92;12.05;;;;;;;-141.50;100.00;63355.56;4975501;28;20129;-83
2021/10/10 03:37:02;;;;;;;23.45;10.60;;;;;;;-141.50;100.00;63355.56;4944054;28;20567;-81
2021/10/10 03:39:29;;;;;;;25.73;12.18;;;;;;;-141.50;100.00;63355.56;4946731;28;20048;-82
2021/10/10 03:41:55;;;;;;;24.70;11.75;;;;;;;-141.50;100.00;63355.56;4943188;28;20042;-84
2021/10/10 03:44:22;;;;;;;29.33;12.27;;;;;;;-141.50;100.00;63355.56;4943184;28;20664;-83
2021/10/10 03:46:49;;;;;;;26.55;12.30;;;;;;;-141.50;100.00;63355.56;4974202;28;20066;-85
2021/10/10 03:49:16;;;;;;;24.75;11.98;;;;;;;-141.50;100.00;63355.56;4943112;28;20153;-82
2021/10/10 03:51:43;;;;;;;26.60;12.40;;;;;;;-141.50;100.00;63355.56;4943672;28;20038;-83
2021/10/10 03:56:52;;;;;;;24.23;11.20;;;;;;;-141.50;100.00;63355.56;4975182;28;20046;-85
2021/10/10 03:59:23;;;;;;;26.35;12.07;;;;;;;-141.50;100.00;63355.56;4943203;28;20510;-82
2021/10/10 04:01:51;;;;;;;23.30;11.85;;;;;;;-141.50;100.00;63355.56;4959059;28;20093;-83
2021/10/10 04:04:17;;;;;;;27.33;12.90;;;;;;;-141.50;100.00;63355.56;4960664;28;20133;-83
2021/10/10 04:06:44;;;;;;;27.27;12.70;;;;;;;-141.50;100.00;63355.56;4960020;28;20053;-84
2021/10/10 04:09:11;;;;;;;25.92;12.10;;;;;;;-141.50;100.00;63355.56;4942551;28;20043;-83
2021/10/10 04:11:37;;;;;;;27.65;11.73;;;;;;;-141.50;100.00;63355.56;4957265;28;20101;-81
2021/10/10 04:14:04;;;;;;;25.17;11.32;;;;;;;-141.50;100.00;63355.56;4941688;28;20141;-83
2021/10/10 04:16:31;;;;;;;22.00;11.20;;;;;;;-141.50;100.00;63355.56;4961951;28;20141;-83
2021/10/10 04:18:57;;;;;;;22.52;11.45;;;;;;;-141.50;100.00;63355.56;4961491;28;20046;-81
2021/10/10 04:21:25;;;;;;;28.83;12.65;;;;;;;-141.50;100.00;63355.56;4958128;28;20089;-82
2021/10/10 04:23:52;;;;;;;25.42;11.82;;;;;;;-141.50;100.00;63355.56;4946007;28;20042;-83
2021/10/10 04:26:18;;;;;;;32.00;12.38;;;;;;;-141.50;100.00;63355.56;4964743;28;20038;-84
2021/10/10 04:28:45;;;;;;;20.60;10.32;;;;;;;-141.50;100.00;63355.56;4959575;28;20411;-83
2021/10/10 04:31:11;;;;;;;20.92;10.82;;;;;;;-141.50;100.00;63355.56;4943967;28;20038;-84
2021/10/10 04:33:38;;;;;;;20.30;10.70;;;;;;;-141.50;100.00;63355.56;4960530;28;20027;-85
2021/10/10 04:36:05;;;;;;;25.70;11.07;;;;;;;-141.50;100.00;63355.56;4978018;28;20053;-83
2021/10/10 04:38:31;;;;;;;30.77;11.00;;;;;;;-141.50;100.00;63355.56;4943414;28;20474;-83
2021/10/10 04:40:58;;;;;;;24.15;11.45;;;;;;;-141.50;100.00;63355.56;4958257;28;20146;-82
2021/10/10 04:43:24;;;;;;;29.27;11.93;;;;;;;-141.50;100.00;63355.56;4943161;28;20398;-84
2021/10/10 04:45:51;;;;;;;27.08;11.70;;;;;;;-141.50;100.00;63355.56;4943505;28;20411;-83
2021/10/10 04:48:18;;;;;;;24.63;10.80;;;;;;;-141.50;100.00;63355.56;4943612;28;20074;-81
2021/10/10 04:50:44;;;;;;;27.17;11.77;;;;;;;-141.50;100.00;63355.56;4943263;28;20483;-83
2021/10/10 04:53:11;;;;;;;22.85;11.25;;;;;;;-141.50;100.00;63355.56;4943479;28;20134;-84
2021/10/10 04:55:38;;;;;;;26.73;12.43;;;;;;;-141.50;100.00;63355.56;4944586;28;20058;-82
2021/10/10 04:58:05;;;;;;;30.08;12.00;;;;;;;-141.50;100.00;63355.56;4942908;28;20053;-82
2021/10/10 05:00:32;;;;;;;24.65;11.50;;;;;;;-141.50;100.00;63355.56;4943047;28;20101;-81
2021/10/10 05:03:02;;;;;;;25.98;12.27;;;;;;;-141.50;100.00;63355.56;4943091;28;20064;-83
2021/10/10 05:05:30;;;;;;;24.90;12.23;;;;;;;-141.50;100.00;63355.56;4958528;28;20487;-85
2021/10/10 05:07:56;;;;;;;25.77;11.98;;;;;;;-141.50;100.00;63355.56;4979105;28;20043;-82
2021/10/10 05:10:23;;;;;;;29.77;12.90;;;;;;;-141.50;100.00;63355.56;4944413;28;20051;-81
2021/10/10 05:12:49;;;;;;;24.75;12.45;;;;;;;-141.50;100.00;63355.56;4957879;28;20129;-83
2021/10/10 05:15:16;;;;;;;25.98;12.07;;;;;;;-141.50;100.00;63355.56;4945154;28;20574;-83
2021/10/10 05:17:43;;;;;;;30.00;12.65;;;;;;;-141.50;100.00;63355.56;4946310;28;20121;-84
2021/10/10 05:20:10;;;;;;;24.30;11.93;;;;;;;-141.50;100.00;63355.56;4946236;28;20046;-83
2021/10/10 05:22:37;;;;;;;27.35;12.25;;;;;;;-141.50;100.00;63355.56;4962613;28;20068;-83
2021/10/10 05:25:04;;;;;;;34.38;12.93;;;;;;;-141.50;100.00;63355.56;4945600;28;20356;-82
2021/10/10 05:27:30;;;;;;;30.55;12.85;;;;;;;-141.50;100.00;63355.56;4961735;28;20398;-85
2021/10/10 05:29:57;;;;;;;23.48;12.27;;;;;;;-141.50;100.00;63355.56;4961390;28;20051;-82
2021/10/10 05:32:24;;;;;;;27.00;13.20;;;;;;;-141.50;100.00;63355.56;4946929;28;20039;-83
2021/10/10 05:34:50;;;;;;;31.23;12.95;;;;;;;-141.50;100.00;63355.56;4946676;28;20399;-82
2021/10/10 05:37:17;;;;;;;26.67;13.20;;;;;;;-141.50;100.00;63355.56;4946761;28;20403;-84
2021/10/10 05:39:46;;;;;;;36.60;13.95;;;;;;;-141.50;100.00;63355.56;4980259;28;20051;-83
2021/10/10 05:42:14;;;;;;;28.70;13.43;;;;;;;-141.50;100.00;63355.56;4963115;28;20034;-83
2021/10/10 05:44:41;;;;;;;28.13;13.13;;;;;;;-141.50;100.00;63355.56;4945968;28;20564;-82
2021/10/10 05:47:08;;;;;;;27.88;13.15;;;;;;;-141.50;100.00;63355.56;4944600;28;20097;-81
2021/10/10 05:49:36;;;;;;;31.55;12.05;;;;;;;-141.50;100.00;63355.56;4962830;28;20038;-84
2021/10/10 05:52:06;;;;;;;22.88;11.82;;;;;;;-141.50;100.00;63355.56;4961461;28;20094;-82
2021/10/10 05:54:35;;;;;;;23.33;12.48;;;;;;;-141.50;100.00;63355.56;4961721;28;20050;-83
2021/10/10 05:57:05;;;;;;;31.45;13.00;;;;;;;-141.50;100.00;63355.56;4960673;28;20050;-84
2021/10/10 05:59:37;;;;;;;30.40;12.68;;;;;;;-141.50;100.00;63355.56;4979990;28;20043;-81
2021/10/10 06:02:06;;;;;;;25.95;12.60;;;;;;;-141.50;100.00;63355.56;4963968;28;20061;-83
2021/10/10 06:04:33;;;;;;;26.88;11.90;;;;;;;-141.50;100.00;63355.56;4967638;28;20086;-81
2021/10/10 06:07:00;;;;;;;24.92;12.70;;;;;;;-141.50;100.00;63355.56;4962482;28;20066;-82
2021/10/10 06:09:27;;;;;;;29.15;13.07;;;;;;;-141.50;100.00;63355.56;4959854;28;20490;-82
2021/10/10 06:11:54;;;;;;;26.38;12.43;;;;;;;-141.50;100.00;63355.56;4987411;23;20129;-80
2021/10/10 06:14:21;;;;;;;27.42;12.75;;;;;;;-141.50;100.00;63355.56;4969003;28;20124;-80
2021/10/10 06:16:51;;;;;;;26.10;12.25;;;;;;;-141.50;100.00;63355.56;4999560;28;20129;-80
2021/10/10 06:19:20;;;;;;;26.55;12.52;;;;;;;-141.50;100.00;63355.56;5004210;28;20065;-80
2021/10/10 06:21:48;;;;;;;33.08;13.35;;;;;;;-141.50;100.00;63355.56;4988605;28;20128;-79
2021/10/10 06:24:15;;;;;;;29.98;13.70;;;;;;;-141.50;100.00;63355.56;4987381;28;20097;-79
2021/10/10 06:26:42;;;;;;;31.67;13.63;;;;;;;-141.50;100.00;63355.56;4985261;28;20150;-78
2021/10/10 06:29:08;;;;;;;28.58;14.02;;;;;;;-141.50;100.00;63355.56;4986239;28;20050;-79
2021/10/10 06:31:35;;;;;;;28.17;14.32;;;;;;;-141.50;100.00;63355.56;4972635;28;20041;-80
2021/10/10 06:34:01;;;;;;;32.88;14.95;;;;;;;-141.50;100.00;63355.56;5004872;28;20038;-80
2021/10/10 06:36:29;;;;;;;29.02;14.02;;;;;;;-141.50;100.00;63355.56;4997288;28;20042;-79
2021/10/10 06:38:56;;;;;;;33.30;13.90;;;;;;;-141.50;100.00;63355.56;4992847;28;20046;-80
2021/10/10 06:41:24;;;;;;;30.27;14.45;;;;;;;-141.50;100.00;63355.56;4972227;28;20049;-81
2021/10/10 06:43:50;;;;;;;30.88;14.32;;;;;;;-141.50;100.00;63355.56;4989463;28;20060;-82
2021/10/10 06:46:17;;;;;;;55.15;21.42;;;;;;;-141.50;100.00;63355.56;4993436;28;20056;-81
2021/10/10 06:48:43;;;;;;;63.65;26.27;;;;;;;-141.50;100.00;63355.56;4970183;28;20479;-81
2021/10/10 06:51:10;;;;;;;57.15;22.77;;;;;;;-141.50;100.00;63355.56;4972736;28;20050;-81
2021/10/10 06:53:36;;;;;;;36.28;17.20;;;;;;;-141.50;100.00;63355.56;4975740;28;20038;-81
2021/10/10 06:56:04;;;;;;;38.20;15.38;;;;;;;-141.50;100.00;63355.56;4970670;28;20484;-78
2021/10/10 06:58:32;;;;;;;29.60;14.82;;;;;;;-141.50;100.00;63355.56;4991114;28;20050;-81
2021/10/10 07:00:59;;;;;;;35.13;17.20;;;;;;;-141.50;100.00;63355.56;4974662;28;20087;-80
2021/10/10 07:03:25;;;;;;;28.67;14.73;;;;;;;-141.50;100.00;63355.56;4994812;28;20034;-79
2021/10/10 07:05:52;;;;;;;30.98;14.02;;;;;;;-141.50;100.00;63355.56;4993501;28;20052;-80
2021/10/10 07:08:18;;;;;;;31.25;14.32;;;;;;;-141.50;100.00;63355.56;4990125;28;20049;-80
2021/10/10 07:10:45;;;;;;;25.75;13.95;;;;;;;-141.50;100.00;63355.56;4992585;28;20042;-79
2021/10/10 07:13:12;;;;;;;25.83;13.18;;;;;;;-141.50;100.00;63355.56;4968265;28;20138;-77
2021/10/10 07:15:38;;;;;;;27.48;13.45;;;;;;;-141.50;100.00;63355.56;4967070;28;20054;-79
2021/10/10 07:18:06;;;;;;;33.00;14.18;;;;;;;-141.50;100.00;63355.56;4987085;28;20047;-81
2021/10/10 07:20:53;;;;;;;29.25;12.52;;;;;;;-141.50;100.00;63355.56;4986203;28;20543;-81
2021/10/10 07:26:00;;;;;;;25.15;12.20;;;;;;;-141.50;100.00;63355.56;4984027;28;20244;-81
2021/10/10 07:28:27;;;;;;;36.53;14.25;;;;;;;-141.50;100.00;63355.56;4983418;28;20367;-81
2021/10/10 07:30:54;;;;;;;43.97;18.05;;;;;;;-141.50;100.00;63355.56;4985341;28;20058;-81
2021/10/10 07:33:21;;;;;;;29.90;13.95;;;;;;;-141.50;100.00;63355.56;4986167;28;20138;-81
2021/10/10 07:35:48;;;;;;;31.92;12.77;;;;;;;-141.50;100.00;63355.56;4989695;28;20054;-81
2021/10/10 07:38:17;;;;;;;24.48;12.52;;;;;;;-141.50;100.00;63355.56;5006366;28;20060;-80
2021/10/10 07:40:44;;;;;;;25.02;11.00;;;;;;;-141.50;100.00;63355.56;5005785;28;20062;-81
2021/10/10 07:43:11;;;;;;;28.08;12.82;;;;;;;-141.50;100.00;63355.56;5004069;28;20785;-80
2021/10/10 07:45:42;;;;;;;26.60;11.73;;;;;;;-141.50;100.00;63355.56;5003488;28;20081;-80
2021/10/10 07:48:09;;;;;;;29.27;11.20;;;;;;;-141.50;100.00;63355.56;5003790;28;20686;-81
2021/10/10 07:50:38;;;;;;;28.02;11.13;;;;;;;-141.50;100.00;63355.56;5003783;28;20144;-81
2021/10/10 07:53:06;;;;;;;21.55;11.18;;;;;;;-141.50;100.00;63355.56;4985168;28;20153;-80
2021/10/10 07:55:35;;;;;;;20.73;11.35;;;;;;;-141.50;100.00;63355.56;5002264;28;20371;-80
2021/10/10 07:58:01;;;;;;;27.20;12.02;;;;;;;-141.50;100.00;63355.56;5004444;28;20064;-81
2021/10/10 08:00:33;;;;;;;26.70;12.25;;;;;;;-141.50;100.00;63355.56;5004851;28;20413;-81
2021/10/10 08:03:02;;;;;;;22.63;11.65;;;;;;;-141.50;100.00;63355.56;4986938;28;20498;-81
2021/10/10 08:05:36;;;;;;;25.60;11.13;;;;;;;-141.50;100.00;63355.56;4986496;28;20390;-79
2021/10/10 08:08:03;;;;;;;27.50;10.20;;;;;;;-141.50;100.00;63355.56;4984744;28;20450;-79
2021/10/10 08:10:30;;;;;;;25.30;11.50;;;;;;;-141.50;100.00;63355.56;4967669;28;20141;-80
2021/10/10 08:12:57;;;;;;;25.65;11.73;;;;;;;-141.50;100.00;63355.56;4985727;28;20046;-80
2021/10/10 08:15:24;;;;;;;28.35;12.25;;;;;;;-141.50;100.00;63355.56;4996880;28;20050;-79
2021/10/10 08:17:51;;;;;;;26.33;10.77;;;;;;;-141.50;100.00;63355.56;4985649;28;20050;-80
2021/10/10 08:20:18;;;;;;;23.63;10.65;;;;;;;-141.50;100.00;63355.56;4965645;28;20061;-79
2021/10/10 08:22:46;;;;;;;26.55;10.70;;;;;;;-141.50;100.00;63355.56;4966989;28;20112;-79
2021/10/10 08:25:13;;;;;;;23.50;10.02;;;;;;;-141.50;100.00;63355.56;4985123;28;20088;-79
2021/10/10 08:27:42;;;;;;;27.50;10.35;;;;;;;-141.50;100.00;63355.56;4984346;28;20053;-79
2021/10/10 08:30:13;;;;;;;26.75;10.73;;;;;;;-141.50;100.00;63355.56;4980232;28;20121;-79
2021/10/10 08:32:40;;;;;;;21.00;9.68;;;;;;;-141.50;100.00;63355.56;5005647;28;20042;-80
2021/10/10 08:35:08;;;;;;;20.27;9.70;;;;;;;-141.50;100.00;63355.56;5003941;28;20228;-79
2021/10/10 08:37:35;;;;;;;22.67;9.00;;;;;;;-141.50;100.00;63355.56;4998592;28;20114;-77
2021/10/10 08:40:06;;;;;;;22.08;9.23;;;;;;;-141.50;100.00;63355.56;4971126;28;20129;-79
2021/10/10 08:42:39;;;;;;;25.83;9.05;;;;;;;-141.50;100.00;63355.56;4986157;28;20053;-79
2021/10/10 08:45:09;;;;;;;21.90;8.90;;;;;;;-141.50;100.00;63355.56;4974286;28;20470;-78
2021/10/10 08:47:43;;;;;;;17.73;8.02;;;;;;;-141.50;100.00;63355.56;4960038;28;20065;-79
2021/10/10 08:50:20;;;;;;;20.73;8.55;;;;;;;-141.50;100.00;63355.56;4976874;28;20038;-79
2021/10/10 08:52:51;;;;;;;23.40;8.95;;;;;;;-141.50;100.00;63355.56;4996533;28;20057;-80
2021/10/10 08:55:18;;;;;;;23.50;9.25;;;;;;;-141.50;100.00;63355.56;4997553;28;20042;-81
2021/10/10 08:57:46;;;;;;;22.70;8.20;;;;;;;-141.50;100.00;63355.56;4998260;28;20054;-78
2021/10/10 09:00:28;;;;;;;18.00;8.75;;;;;;;-141.50;100.00;63355.56;4982127;28;20434;-82
2021/10/10 09:02:56;;;;;;;21.17;8.63;;;;;;;-141.50;100.00;63355.56;4977625;28;20129;-80
2021/10/10 09:05:26;;;;;;;24.60;8.73;;;;;;;-141.50;100.00;63355.56;4970638;28;20498;-80
2021/10/10 09:07:56;;;;;;;17.52;7.82;;;;;;;-141.50;100.00;63355.56;4967853;28;20473;-82
2021/10/10 09:10:31;;;;;;;18.17;7.38;;;;;;;-141.50;100.00;63355.56;4986093;28;20786;-81
2021/10/10 09:13:09;;;;;;;17.30;7.63;;;;;;;-141.50;100.00;63355.56;4989526;28;20083;-81
2021/10/10 09:15:41;;;;;;;18.45;7.82;;;;;;;-141.50;100.00;63355.56;4993857;28;20446;-80
2021/10/10 09:18:09;;;;;;;18.83;8.30;;;;;;;-141.50;100.00;63355.56;5000601;28;20050;-81
2021/10/10 09:20:41;;;;;;;16.50;7.75;;;;;;;-141.50;100.00;63355.56;4990094;28;20058;-79
2021/10/10 09:23:20;;;;;;;21.40;7.50;;;;;;;-141.50;100.00;63355.56;4968321;28;20124;-79
2021/10/10 09:26:01;;;;;;;18.85;8.63;;;;;;;-141.50;100.00;63355.56;4992622;28;20451;-80
2021/10/10 09:28:31;;;;;;;22.20;7.05;;;;;;;-141.50;100.00;63355.56;4987233;28;20073;-78
2021/10/10 09:31:00;;;;;;;21.00;7.80;;;;;;;-141.50;100.00;63355.56;4975936;28;20537;-81
2021/10/10 09:33:44;;;;;;;15.68;6.90;;;;;;;-141.50;100.00;63355.56;4987965;28;20050;-81
2021/10/10 09:36:20;;;;;;;17.50;7.47;;;;;;;-141.50;100.00;63355.56;4989524;28;20497;-81
2021/10/10 09:46:48;;;;;;;18.20;6.35;;;;;;;-141.50;100.00;63355.56;4986346;28;20065;-81
2021/10/10 09:49:30;;;;;;;14.43;6.30;;;;;;;-141.50;100.00;63355.56;4968190;28;20049;-80
2021/10/10 09:52:08;;;;;;;17.58;6.55;;;;;;;-141.50;100.00;63355.56;4971618;28;20106;-81
2021/10/10 09:54:58;;;;;;;14.25;6.45;;;;;;;-141.50;100.00;63355.56;4971898;28;20046;-79
2021/10/10 09:57:32;;;;;;;12.45;6.47;;;;;;;-141.50;100.00;63355.56;4969922;28;20100;-79
2021/10/10 09:59:58;;;;;;;13.75;6.55;;;;;;;-141.50;100.00;63355.56;4992964;28;20045;-79
2021/10/10 10:02:41;;;;;;;12.95;5.32;;;;;;;-141.50;100.00;63355.56;4974244;28;20053;-81
2021/10/10 10:05:21;;;;;;;12.90;6.07;;;;;;;-141.50;100.00;63355.56;5008846;28;20128;-78
2021/10/10 10:07:49;;;;;;;13.90;6.07;;;;;;;-141.50;100.00;63355.56;5004253;28;20126;-82
2021/10/10 10:10:15;;;;;;;16.30;5.75;;;;;;;-141.50;100.00;63355.56;4970611;28;20050;-81
2021/10/10 10:12:44;;;;;;;15.23;6.78;;;;;;;-141.50;100.00;63355.56;4987642;28;20054;-82
2021/10/10 10:15:10;;;;;;;18.42;6.88;;;;;;;-141.50;100.00;63355.56;4987429;28;20370;-81
2021/10/10 10:17:37;;;;;;;13.07;6.43;;;;;;;-141.50;100.00;63355.56;4968728;28;20050;-81
2021/10/10 10:20:04;;;;;;;16.48;7.05;;;;;;;-141.50;100.00;63355.56;4987639;28;20117;-81
2021/10/10 10:22:34;;;;;;;14.98;6.47;;;;;;;-141.50;100.00;63355.56;5001465;28;20069;-81
2021/10/10 10:25:02;;;;;;;13.02;6.50;;;;;;;-141.50;100.00;63355.56;5006894;28;20542;-82
2021/10/10 10:30:04;;;;;;;15.23;6.03;;;;;;;-141.50;100.00;63355.56;4976067;28;20053;-77
2021/10/10 10:32:33;;;;;;;13.57;6.53;;;;;;;-141.50;100.00;63355.56;4980934;28;20109;-79
2021/10/10 10:35:09;;;;;;;13.30;7.05;;;;;;;-141.50;100.00;63355.56;4945322;28;20081;-79
2021/10/10 10:37:41;;;;;;;16.50;6.30;;;;;;;-141.50;100.00;63355.56;4981233;28;20050;-79
2021/10/10 10:40:14;;;;;;;10.68;6.28;;;;;;;-141.50;100.00;63355.56;4985829;28;20046;-79
2021/10/10 10:42:46;;;;;;;10.90;6.00;;;;;;;-141.50;100.00;63355.56;4961649;28;20138;-80
2021/10/10 10:45:29;;;;;;;10.50;5.72;;;;;;;-141.50;100.00;63355.56;4976119;28;20333;-78
2021/10/10 10:48:07;;;;;;;16.67;6.45;;;;;;;-141.50;100.00;63355.56;4969115;28;20450;-78
2021/10/10 10:50:42;;;;;;;11.93;6.15;;;;;;;-141.50;100.00;63355.56;4943749;28;20061;-79
2021/10/10 10:53:13;;;;;;;12.63;6.57;;;;;;;-141.50;100.00;63355.56;4944138;28;20465;-79
2021/10/10 10:55:45;;;;;;;11.43;5.65;;;;;;;-141.50;100.00;63355.56;4972726;28;20065;-80
2021/10/10 10:58:13;;;;;;;18.77;6.15;;;;;;;-141.50;100.00;63355.56;4952186;28;20169;-79
2021/10/10 11:00:45;;;;;;;11.93;6.03;;;;;;;-141.50;100.00;63355.56;4940035;28;20159;-79
2021/10/10 11:03:14;;;;;;;14.18;6.43;;;;;;;-141.50;100.00;63355.56;4952950;28;20542;-79
2021/10/10 11:05:50;;;;;;;9.48;5.30;;;;;;;-141.50;100.00;63355.56;4985651;28;20109;-77
2021/10/10 11:08:17;;;;;;;10.98;5.45;;;;;;;-141.50;100.00;63355.56;4971888;28;20255;-79
2021/10/10 11:11:22;;;;;;;14.60;5.57;;;;;;;-141.50;100.00;63355.56;4987968;28;20062;-78
2021/10/10 11:13:59;;;;;;;9.00;5.60;;;;;;;-141.50;100.00;63355.56;4955056;28;20054;-78
2021/10/10 11:16:25;;;;;;;8.52;5.38;;;;;;;-141.50;100.00;63355.56;4950567;28;20043;-78
2021/10/10 11:19:09;;;;;;;8.77;5.38;;;;;;;-141.50;100.00;63355.56;4928157;28;20057;-79